Sisseton, SD

2:48 PM CST on November 21, 2014 (GMT -0600)
RAWS MARSHALL CO SD US | Change Station
CLOSE
Current Station
Personal Weather Station
Location: Lake City, SD
Elevation: 2009 ft
Nearby Weather Stations
Active Advisory: Special Statement

Elev 2009 ft 45.80 °N, 97.45 °W | Updated 49 minutes ago

Partly Cloudy
Partly Cloudy
30 °F
Feels Like 16 °F
N
25
Wind Variable Wind from SW
Gusts 32.0 mph

Today
High -- | Low -- °F
--% Chance of Precip.
Yesterday
High -- | Low -- °F
Precip. -- in
7:35 AM 4:51 PM
Waning Crescent, 1% visible
Pressure 29.84 in
Visibility 10.0 miles
Clouds Clear
Windchill 16 °F
Dew Point 23 °F
Humidity 75%
Rainfall 0.00 in
Snow Depth Not available.
UV 1 out of 12
Pollen .10 out of 12
Air Quality Not available.
Flu Activity Not available.
METAR KETH 212036Z AUTO 15008G14KT 10SM CLR M01/M04 A2984 RMK AO2

More Conditions Fewer Conditions

Pressure 29.84 in
Visibility 10.0 miles
Clouds Clear
Windchill 16 °F
Dew Point 23 °F
Humidity 75%
Rainfall 0.00 in
Snow Depth Not available.
UV 1 out of 12
Pollen .10 out of 12
Air Quality Not available.
Flu Activity Not available.
METAR KETH 212036Z AUTO 15008G14KT 10SM CLR M01/M04 A2984 RMK AO2

More Conditions Fewer Conditions

10-Day Weather Forecast

Almanac

Astronomy

Nov. 21, 2014 Rise Set
Actual Time
Civil Twilight
Nautical Twilight
Astronomical Twilight
Moon
Length of Visible Light
Length of Day
Tomorrow will be .
, % of the Moon is Illuminated

Today's Extremes

State Highs State Lows

Community

WunderPhotos

Upload Photos

1,772,713 photos uploaded!

WunderBlogs® & News

Nearby

Air Quality

  Air Quality AQ Index Pollutant
Not available.

Snow Depth

Station Depth Elevation

Earthquake Activity

City Distance Mag. Time & Date
Minimum magnitude displayed is 2.5.

Coastal Water Temperatures

Place Temperature

Nearby Weather Stations